CheckWX is a tool to help pilots better visualize weather data.  It is not intended as a substitute for an official pre-flight weather briefing.

08:16:17 UTC

KJKL METAR
Julian Carroll Airport
Jackson, Kentucky, USA
Current

23 mins ago

KJKL 220753Z AUTO 05004KT 5SM BR OVC002 04/04 A3022 RMK AO2 RAE47 SLP235 P0001 T00440044
Observed
Feb-22 @ 07:53 UTC
Wind
  • 050° at 4 KTS
Visibility
5 SM
Flight Rules
LIFR
Conditions
Mist
Cloud Levels
  • Overcast at 200' AGL
Temperature
C / 39°F
Dewpoint
C / 39°F
Humidity
100%
Altimeter
30.22" Hg
Pressure
1023.5 hPa
Current Rain
0.01"
Previous

1 hour ago

KJKL 220653Z AUTO 06004KT 5SM -RA BR BKN002 OVC070 04/04 A3023 RMK AO2 SLP238 P0006 T00440039
Observed
Feb-22 @ 06:53 UTC
Wind
  • 060° at 4 KTS
Visibility
5 SM
Flight Rules
LIFR
Conditions
Light Rain, Mist
Cloud Levels
  • Broken at 200' AGL
  • Overcast at 7,000' AGL
Temperature
C / 39°F
Dewpoint
C / 39°F
Humidity
100%
Altimeter
30.23" Hg
Pressure
1023.8 hPa
Current Rain
0.06"
Previous

2 hours ago

KJKL 220636Z AUTO 06004KT 4SM -RA BR BKN002 BKN021 OVC075 04/04 A3024 RMK AO2 P0006 T00440039
Observed
Feb-22 @ 06:36 UTC
Wind
  • 060° at 4 KTS
Visibility
4 SM
Flight Rules
LIFR
Conditions
Light Rain, Mist
Cloud Levels
  • Broken at 200' AGL
  • Broken at 2,100' AGL
  • Overcast at 7,500' AGL
Temperature
C / 39°F
Dewpoint
C / 39°F
Humidity
100%
Altimeter
30.24" Hg
Pressure
1024.02 hPa
Current Rain
0.06"